sensor_id;sensor_type;location;lat;lon;timestamp;pressure;altitude;pressure_sealevel;temperature;humidity
6208;BME280;3137;51.550;7.060;2023-03-13T00:01:37;100023.94;;;9.91;71.72
6208;BME280;3137;51.550;7.060;2023-03-13T00:04:04;100025.78;;;9.90;71.70
6208;BME280;3137;51.550;7.060;2023-03-13T00:06:35;100018.22;;;9.95;72.10
6208;BME280;3137;51.550;7.060;2023-03-13T00:09:03;100018.94;;;9.97;71.83
6208;BME280;3137;51.550;7.060;2023-03-13T00:11:31;100012.97;;;10.05;72.01
6208;BME280;3137;51.550;7.060;2023-03-13T00:13:59;99999.84;;;10.02;72.58
6208;BME280;3137;51.550;7.060;2023-03-13T00:16:26;100003.53;;;10.01;72.50
6208;BME280;3137;51.550;7.060;2023-03-13T00:18:54;100008.00;;;10.00;73.20
6208;BME280;3137;51.550;7.060;2023-03-13T00:21:23;100000.22;;;9.97;74.09
6208;BME280;3137;51.550;7.060;2023-03-13T00:23:50;99999.38;;;9.97;74.45
6208;BME280;3137;51.550;7.060;2023-03-13T00:26:19;99995.25;;;10.04;74.01
6208;BME280;3137;51.550;7.060;2023-03-13T00:28:46;99983.59;;;9.94;74.57
6208;BME280;3137;51.550;7.060;2023-03-13T00:31:19;99971.91;;;9.95;75.17
6208;BME280;3137;51.550;7.060;2023-03-13T00:33:50;99962.94;;;9.85;75.95
6208;BME280;3137;51.550;7.060;2023-03-13T00:36:18;99962.94;;;9.85;76.32
6208;BME280;3137;51.550;7.060;2023-03-13T00:38:45;99962.59;;;9.78;76.78
6208;BME280;3137;51.550;7.060;2023-03-13T00:41:14;99948.84;;;9.71;77.50
6208;BME280;3137;51.550;7.060;2023-03-13T00:43:41;99950.69;;;9.71;78.13
6208;BME280;3137;51.550;7.060;2023-03-13T00:46:10;99936.47;;;9.70;78.60
6208;BME280;3137;51.550;7.060;2023-03-13T00:48:38;99935.25;;;9.63;79.56
6208;BME280;3137;51.550;7.060;2023-03-13T00:51:05;99934.91;;;9.56;80.20
6208;BME280;3137;51.550;7.060;2023-03-13T00:53:32;99926.16;;;9.54;80.76
6208;BME280;3137;51.550;7.060;2023-03-13T00:56:11;99925.09;;;9.46;81.06
6208;BME280;3137;51.550;7.060;2023-03-13T00:58:40;99916.19;;;9.45;81.74
6208;BME280;3137;51.550;7.060;2023-03-13T01:01:08;99900.91;;;9.36;82.22
6208;BME280;3137;51.550;7.060;2023-03-13T01:03:35;99895.69;;;9.34;82.55
6208;BME280;3137;51.550;7.060;2023-03-13T01:06:04;99883.53;;;9.30;82.92
6208;BME280;3137;51.550;7.060;2023-03-13T01:08:31;99886.22;;;9.30;83.29
6208;BME280;3137;51.550;7.060;2023-03-13T01:10:59;99880.97;;;9.29;84.04
6208;BME280;3137;51.550;7.060;2023-03-13T01:13:28;99872.38;;;9.25;84.00
6208;BME280;3137;51.550;7.060;2023-03-13T01:15:56;99872.59;;;9.33;83.98
6208;BME280;3137;51.550;7.060;2023-03-13T01:18:22;99861.44;;;9.28;84.20
6208;BME280;3137;51.550;7.060;2023-03-13T01:20:48;99858.53;;;9.31;84.50
6208;BME280;3137;51.550;7.060;2023-03-13T01:23:16;99854.25;;;9.29;84.36
6208;BME280;3137;51.550;7.060;2023-03-13T01:25:43;99863.53;;;9.25;84.71
6208;BME280;3137;51.550;7.060;2023-03-13T01:28:09;99857.91;;;9.28;84.93
6208;BME280;3137;51.550;7.060;2023-03-13T01:30:36;99850.16;;;9.25;85.34
6208;BME280;3137;51.550;7.060;2023-03-13T01:33:02;99849.06;;;9.27;85.52
6208;BME280;3137;51.550;7.060;2023-03-13T01:35:28;99849.91;;;9.28;85.83
6208;BME280;3137;51.550;7.060;2023-03-13T01:37:55;99843.56;;;9.29;86.52
6208;BME280;3137;51.550;7.060;2023-03-13T01:40:21;99827.22;;;9.11;88.35
6208;BME280;3137;51.550;7.060;2023-03-13T01:42:52;99835.13;;;9.12;88.44
6208;BME280;3137;51.550;7.060;2023-03-13T01:51:39;99799.31;;;8.92;91.17
6208;BME280;3137;51.550;7.060;2023-03-13T01:54:14;99785.59;;;8.97;91.40
6208;BME280;3137;51.550;7.060;2023-03-13T01:56:47;99775.53;;;8.89;91.71
6208;BME280;3137;51.550;7.060;2023-03-13T01:59:19;99773.97;;;8.87;91.96
6208;BME280;3137;51.550;7.060;2023-03-13T02:01:48;99773.13;;;8.86;92.51
6208;BME280;3137;51.550;7.060;2023-03-13T02:04:16;99760.88;;;8.84;92.46
6208;BME280;3137;51.550;7.060;2023-03-13T02:06:46;99752.59;;;8.87;92.84
6208;BME280;3137;51.550;7.060;2023-03-13T02:09:18;99745.53;;;8.86;92.67
6208;BME280;3137;51.550;7.060;2023-03-13T02:11:51;99733.91;;;8.87;93.08
6208;BME280;3137;51.550;7.060;2023-03-13T02:14:20;99736.47;;;8.88;93.16
6208;BME280;3137;51.550;7.060;2023-03-13T02:16:48;99731.59;;;8.93;93.13
6208;BME280;3137;51.550;7.060;2023-03-13T02:19:23;99730.88;;;8.91;93.19
6208;BME280;3137;51.550;7.060;2023-03-13T02:22:01;99714.59;;;8.83;93.75
6208;BME280;3137;51.550;7.060;2023-03-13T02:27:35;99691.69;;;8.81;94.23
6208;BME280;3137;51.550;7.060;2023-03-13T02:30:04;99690.09;;;8.89;94.27
6208;BME280;3137;51.550;7.060;2023-03-13T02:32:31;99685.84;;;8.87;94.55
6208;BME280;3137;51.550;7.060;2023-03-13T02:35:02;99685.38;;;8.82;94.73
6208;BME280;3137;51.550;7.060;2023-03-13T02:37:34;99671.41;;;8.89;94.88
6208;BME280;3137;51.550;7.060;2023-03-13T02:40:06;99666.19;;;8.88;94.77
6208;BME280;3137;51.550;7.060;2023-03-13T02:42:38;99651.88;;;8.89;94.71
6208;BME280;3137;51.550;7.060;2023-03-13T02:45:06;99657.22;;;8.89;94.81
6208;BME280;3137;51.550;7.060;2023-03-13T02:47:33;99647.84;;;8.94;94.64
6208;BME280;3137;51.550;7.060;2023-03-13T02:50:00;99643.94;;;8.99;94.94
6208;BME280;3137;51.550;7.060;2023-03-13T02:52:28;99641.38;;;8.97;94.50
6208;BME280;3137;51.550;7.060;2023-03-13T02:54:59;99632.41;;;8.98;95.12
6208;BME280;3137;51.550;7.060;2023-03-13T02:57:27;99626.81;;;9.01;94.51
6208;BME280;3137;51.550;7.060;2023-03-13T02:59:54;99628.50;;;9.02;94.81
6208;BME280;3137;51.550;7.060;2023-03-13T03:02:20;99618.75;;;9.12;94.68
6208;BME280;3137;51.550;7.060;2023-03-13T03:04:47;99617.28;;;9.20;93.99
6208;BME280;3137;51.550;7.060;2023-03-13T03:07:14;99618.75;;;9.12;94.42
6208;BME280;3137;51.550;7.060;2023-03-13T03:09:40;99624.19;;;9.22;94.52
6208;BME280;3137;51.550;7.060;2023-03-13T03:12:11;99601.69;;;9.25;94.44
6208;BME280;3137;51.550;7.060;2023-03-13T03:14:38;99587.22;;;9.27;94.48
6208;BME280;3137;51.550;7.060;2023-03-13T03:17:04;99592.56;;;9.27;94.67
6208;BME280;3137;51.550;7.060;2023-03-13T03:19:31;99587.09;;;9.29;94.60
6208;BME280;3137;51.550;7.060;2023-03-13T03:21:58;99588.53;;;9.33;94.57
6208;BME280;3137;51.550;7.060;2023-03-13T03:24:25;99586.84;;;9.32;94.71
6208;BME280;3137;51.550;7.060;2023-03-13T03:26:51;99579.28;;;9.37;94.65
6208;BME280;3137;51.550;7.060;2023-03-13T03:29:24;99575.00;;;9.46;94.53
6208;BME280;3137;51.550;7.060;2023-03-13T03:31:52;99583.00;;;9.46;94.44
6208;BME280;3137;51.550;7.060;2023-03-13T03:34:20;99575.94;;;9.45;94.71
6208;BME280;3137;51.550;7.060;2023-03-13T03:36:47;99587.69;;;9.53;94.53
6208;BME280;3137;51.550;7.060;2023-03-13T03:39:13;99576.16;;;9.53;94.47
6208;BME280;3137;51.550;7.060;2023-03-13T03:41:40;99575.03;;;9.55;94.71
6208;BME280;3137;51.550;7.060;2023-03-13T03:44:08;99572.09;;;9.58;94.57
6208;BME280;3137;51.550;7.060;2023-03-13T03:46:47;99573.25;;;9.66;94.46
6208;BME280;3137;51.550;7.060;2023-03-13T03:49:14;99576.38;;;9.71;94.27
6208;BME280;3137;51.550;7.060;2023-03-13T03:51:42;99573.69;;;9.71;94.46
6208;BME280;3137;51.550;7.060;2023-03-13T03:54:08;99576.09;;;9.74;94.47
6208;BME280;3137;51.550;7.060;2023-03-13T03:56:35;99582.34;;;9.84;94.56
6208;BME280;3137;51.550;7.060;2023-03-13T03:59:01;99585.72;;;9.86;94.20
6208;BME280;3137;51.550;7.060;2023-03-13T04:01:46;99584.34;;;9.92;94.00
6208;BME280;3137;51.550;7.060;2023-03-13T04:04:18;99597.72;;;9.92;93.85
6208;BME280;3137;51.550;7.060;2023-03-13T04:06:48;99592.81;;;9.97;94.00
6208;BME280;3137;51.550;7.060;2023-03-13T04:09:14;99594.06;;;9.93;94.30
6208;BME280;3137;51.550;7.060;2023-03-13T04:11:41;99579.84;;;9.92;94.46
6208;BME280;3137;51.550;7.060;2023-03-13T04:14:09;99584.75;;;9.87;94.92
6208;BME280;3137;51.550;7.060;2023-03-13T04:16:36;99576.47;;;9.90;94.67
6208;BME280;3137;51.550;7.060;2023-03-13T04:19:03;99562.38;;;9.88;95.40
6208;BME280;3137;51.550;7.060;2023-03-13T04:21:29;99565.75;;;9.90;95.43
6208;BME280;3137;51.550;7.060;2023-03-13T04:24:00;99567.47;;;9.91;95.24
6208;BME280;3137;51.550;7.060;2023-03-13T04:26:28;99549.00;;;9.88;95.33
6208;BME280;3137;51.550;7.060;2023-03-13T04:28:56;99542.41;;;9.92;95.54
6208;BME280;3137;51.550;7.060;2023-03-13T04:31:49;99535.09;;;9.94;95.69
6208;BME280;3137;51.550;7.060;2023-03-13T04:34:31;99540.44;;;9.94;95.75
6208;BME280;3137;51.550;7.060;2023-03-13T04:37:00;99529.75;;;9.94;95.79
6208;BME280;3137;51.550;7.060;2023-03-13T04:39:40;99528.03;;;9.93;95.68
6208;BME280;3137;51.550;7.060;2023-03-13T04:42:22;99543.16;;;10.04;95.35
6208;BME280;3137;51.550;7.060;2023-03-13T04:44:58;99543.47;;;10.11;95.15
6208;BME280;3137;51.550;7.060;2023-03-13T04:47:37;99539.06;;;10.10;95.44
6208;BME280;3137;51.550;7.060;2023-03-13T04:50:27;99527.25;;;10.12;95.21
6208;BME280;3137;51.550;7.060;2023-03-13T04:53:04;99524.59;;;10.22;95.34
6208;BME280;3137;51.550;7.060;2023-03-13T04:56:03;99522.50;;;10.26;95.13
6208;BME280;3137;51.550;7.060;2023-03-13T04:58:29;99523.22;;;10.28;95.43
6208;BME280;3137;51.550;7.060;2023-03-13T05:01:08;99513.38;;;10.28;95.67
6208;BME280;3137;51.550;7.060;2023-03-13T05:04:07;99514.22;;;10.38;95.66
6208;BME280;3137;51.550;7.060;2023-03-13T05:06:36;99520.28;;;10.40;95.52
6208;BME280;3137;51.550;7.060;2023-03-13T05:09:29;99512.84;;;10.54;95.16
6208;BME280;3137;51.550;7.060;2023-03-13T05:12:29;99503.69;;;10.66;95.46
6208;BME280;3137;51.550;7.060;2023-03-13T05:15:34;99499.59;;;10.81;95.27
6208;BME280;3137;51.550;7.060;2023-03-13T05:18:12;99502.84;;;10.95;94.63
6208;BME280;3137;51.550;7.060;2023-03-13T05:20:45;99491.69;;;10.99;94.12
6208;BME280;3137;51.550;7.060;2023-03-13T05:23:29;99492.09;;;11.04;94.06
6208;BME280;3137;51.550;7.060;2023-03-13T05:26:02;99484.34;;;11.11;94.20
6208;BME280;3137;51.550;7.060;2023-03-13T05:28:34;99495.56;;;11.24;93.59
6208;BME280;3137;51.550;7.060;2023-03-13T05:31:26;99483.13;;;11.33;93.11
6208;BME280;3137;51.550;7.060;2023-03-13T05:34:17;99488.31;;;11.44;93.07
6208;BME280;3137;51.550;7.060;2023-03-13T05:37:09;99488.44;;;11.53;92.90
6208;BME280;3137;51.550;7.060;2023-03-13T05:39:56;99482.63;;;11.57;92.00
6208;BME280;3137;51.550;7.060;2023-03-13T05:42:23;99478.09;;;11.58;91.79
6208;BME280;3137;51.550;7.060;2023-03-13T05:45:14;99485.56;;;11.64;91.61
6208;BME280;3137;51.550;7.060;2023-03-13T05:47:46;99499.91;;;11.73;91.09
6208;BME280;3137;51.550;7.060;2023-03-13T05:50:36;99498.94;;;11.74;90.76
6208;BME280;3137;51.550;7.060;2023-03-13T05:53:17;99479.09;;;11.84;89.83
6208;BME280;3137;51.550;7.060;2023-03-13T05:56:05;99494.94;;;11.87;90.73
6208;BME280;3137;51.550;7.060;2023-03-13T05:58:50;99482.91;;;11.91;89.62
6208;BME280;3137;51.550;7.060;2023-03-13T06:01:47;99483.59;;;11.94;89.39
6208;BME280;3137;51.550;7.060;2023-03-13T06:04:25;99479.53;;;11.89;89.50
6208;BME280;3137;51.550;7.060;2023-03-13T06:06:52;99458.31;;;11.96;89.95
6208;BME280;3137;51.550;7.060;2023-03-13T06:09:19;99453.41;;;11.91;89.19
6208;BME280;3137;51.550;7.060;2023-03-13T06:11:45;99448.34;;;11.88;89.48
6208;BME280;3137;51.550;7.060;2023-03-13T06:14:12;99447.75;;;11.85;89.93
6208;BME280;3137;51.550;7.060;2023-03-13T06:16:44;99443.13;;;11.87;89.08
6208;BME280;3137;51.550;7.060;2023-03-13T06:19:16;99446.03;;;11.94;88.93
6208;BME280;3137;51.550;7.060;2023-03-13T06:21:43;99452.69;;;11.89;89.42
6208;BME280;3137;51.550;7.060;2023-03-13T06:24:09;99447.44;;;11.98;89.51
6208;BME280;3137;51.550;7.060;2023-03-13T06:26:36;99457.09;;;12.08;88.93
6208;BME280;3137;51.550;7.060;2023-03-13T06:29:02;99455.13;;;12.10;87.82
6208;BME280;3137;51.550;7.060;2023-03-13T06:31:29;99455.81;;;12.12;87.54
6208;BME280;3137;51.550;7.060;2023-03-13T06:33:55;99461.94;;;12.23;87.39
6208;BME280;3137;51.550;7.060;2023-03-13T06:36:23;99453.38;;;12.19;87.45
6208;BME280;3137;51.550;7.060;2023-03-13T06:38:50;99457.28;;;12.25;87.18
6208;BME280;3137;51.550;7.060;2023-03-13T06:41:17;99454.66;;;12.33;87.42
6208;BME280;3137;51.550;7.060;2023-03-13T06:43:43;99455.22;;;12.37;86.15
6208;BME280;3137;51.550;7.060;2023-03-13T06:46:18;99456.28;;;12.44;86.55
6208;BME280;3137;51.550;7.060;2023-03-13T06:48:45;99458.38;;;12.50;85.07
6208;BME280;3137;51.550;7.060;2023-03-13T06:51:13;99469.63;;;12.53;85.46
6208;BME280;3137;51.550;7.060;2023-03-13T06:53:40;99470.31;;;12.55;84.94
6208;BME280;3137;51.550;7.060;2023-03-13T06:56:07;99479.91;;;12.58;84.39
6208;BME280;3137;51.550;7.060;2023-03-13T06:58:34;99470.69;;;12.61;85.00
6208;BME280;3137;51.550;7.060;2023-03-13T07:01:11;99477.47;;;12.65;84.38
6208;BME280;3137;51.550;7.060;2023-03-13T07:03:39;99470.09;;;12.67;84.47
6208;BME280;3137;51.550;7.060;2023-03-13T07:06:10;99466.53;;;12.66;84.30
6208;BME280;3137;51.550;7.060;2023-03-13T07:08:37;99468.06;;;12.69;83.82
6208;BME280;3137;51.550;7.060;2023-03-13T07:11:08;99471.81;;;12.76;83.37
6208;BME280;3137;51.550;7.060;2023-03-13T07:13:35;99465.31;;;12.79;83.32
6208;BME280;3137;51.550;7.060;2023-03-13T07:16:06;99474.91;;;12.81;82.87
6208;BME280;3137;51.550;7.060;2023-03-13T07:18:33;99455.78;;;12.84;82.49
6208;BME280;3137;51.550;7.060;2023-03-13T07:21:02;99462.53;;;12.88;81.91
6208;BME280;3137;51.550;7.060;2023-03-13T07:23:33;99472.28;;;12.89;81.91
6208;BME280;3137;51.550;7.060;2023-03-13T07:26:02;99450.31;;;12.94;81.64
6208;BME280;3137;51.550;7.060;2023-03-13T07:28:29;99451.34;;;12.93;81.12
6208;BME280;3137;51.550;7.060;2023-03-13T07:31:14;99433.06;;;13.05;81.13
6208;BME280;3137;51.550;7.060;2023-03-13T07:33:43;99439.00;;;13.08;80.52
6208;BME280;3137;51.550;7.060;2023-03-13T07:36:12;99441.13;;;13.05;80.86
6208;BME280;3137;51.550;7.060;2023-03-13T07:38:40;99431.25;;;13.05;80.32
6208;BME280;3137;51.550;7.060;2023-03-13T07:41:10;99433.75;;;13.07;80.43
6208;BME280;3137;51.550;7.060;2023-03-13T07:43:37;99430.78;;;13.10;80.41
6208;BME280;3137;51.550;7.060;2023-03-13T07:46:05;99430.78;;;13.10;79.83
6208;BME280;3137;51.550;7.060;2023-03-13T07:48:34;99430.28;;;13.14;79.85
6208;BME280;3137;51.550;7.060;2023-03-13T07:51:02;99417.69;;;13.15;79.78
6208;BME280;3137;51.550;7.060;2023-03-13T07:53:28;99428.63;;;13.22;78.80
6208;BME280;3137;51.550;7.060;2023-03-13T07:55:57;99418.06;;;13.20;79.29
6208;BME280;3137;51.550;7.060;2023-03-13T07:58:27;99427.97;;;13.19;78.67
6208;BME280;3137;51.550;7.060;2023-03-13T08:00:53;99428.50;;;13.23;78.82
6208;BME280;3137;51.550;7.060;2023-03-13T08:03:21;99428.03;;;13.28;78.91
6208;BME280;3137;51.550;7.060;2023-03-13T08:05:55;99426.13;;;13.20;78.71
6208;BME280;3137;51.550;7.060;2023-03-13T08:08:22;99423.78;;;13.25;78.21
6208;BME280;3137;51.550;7.060;2023-03-13T08:10:48;99432.34;;;13.20;77.82
6208;BME280;3137;51.550;7.060;2023-03-13T08:13:15;99430.72;;;13.28;78.01
6208;BME280;3137;51.550;7.060;2023-03-13T08:15:41;99432.41;;;13.29;77.71
6208;BME280;3137;51.550;7.060;2023-03-13T08:18:07;99423.34;;;13.30;77.69
6208;BME280;3137;51.550;7.060;2023-03-13T08:20:34;99433.78;;;13.33;77.55
6208;BME280;3137;51.550;7.060;2023-03-13T08:23:00;99415.78;;;13.33;77.96
6208;BME280;3137;51.550;7.060;2023-03-13T08:25:26;99410.25;;;13.35;77.17
6208;BME280;3137;51.550;7.060;2023-03-13T08:27:53;99422.69;;;13.36;77.08
6208;BME280;3137;51.550;7.060;2023-03-13T08:30:20;99423.38;;;13.38;77.23
6208;BME280;3137;51.550;7.060;2023-03-13T08:32:46;99441.22;;;13.39;77.22
6208;BME280;3137;51.550;7.060;2023-03-13T08:35:12;99440.88;;;13.42;76.28
6208;BME280;3137;51.550;7.060;2023-03-13T08:37:39;99433.34;;;13.46;75.05
6208;BME280;3137;51.550;7.060;2023-03-13T08:40:06;99442.19;;;13.38;76.08
6208;BME280;3137;51.550;7.060;2023-03-13T08:42:37;99442.56;;;13.43;76.31
6208;BME280;3137;51.550;7.060;2023-03-13T08:45:04;99442.09;;;13.48;76.14
6208;BME280;3137;51.550;7.060;2023-03-13T08:47:31;99430.50;;;13.47;75.95
6208;BME280;3137;51.550;7.060;2023-03-13T08:49:57;99435.75;;;13.57;75.90
6208;BME280;3137;51.550;7.060;2023-03-13T08:52:24;99429.03;;;13.61;74.86
6208;BME280;3137;51.550;7.060;2023-03-13T08:54:51;99436.56;;;13.57;76.10
6208;BME280;3137;51.550;7.060;2023-03-13T08:57:17;99445.34;;;13.59;76.08
6208;BME280;3137;51.550;7.060;2023-03-13T08:59:44;99449.03;;;13.58;75.66
6208;BME280;3137;51.550;7.060;2023-03-13T09:02:10;99435.09;;;13.63;75.56
6208;BME280;3137;51.550;7.060;2023-03-13T09:04:37;99443.06;;;13.73;75.67
6208;BME280;3137;51.550;7.060;2023-03-13T09:07:03;99427.66;;;13.91;74.50
6208;BME280;3137;51.550;7.060;2023-03-13T09:09:29;99432.19;;;13.99;74.82
6208;BME280;3137;51.550;7.060;2023-03-13T09:11:56;99416.25;;;14.06;74.56
6208;BME280;3137;51.550;7.060;2023-03-13T09:14:22;99425.84;;;14.16;73.89
6208;BME280;3137;51.550;7.060;2023-03-13T09:16:48;99400.94;;;14.22;73.88
6208;BME280;3137;51.550;7.060;2023-03-13T09:19:15;99406.34;;;14.31;74.79
6208;BME280;3137;51.550;7.060;2023-03-13T09:21:42;99411.72;;;14.39;73.52
6208;BME280;3137;51.550;7.060;2023-03-13T09:24:08;99407.19;;;14.39;73.27
6208;BME280;3137;51.550;7.060;2023-03-13T09:26:34;99410.03;;;14.38;73.49
6208;BME280;3137;51.550;7.060;2023-03-13T09:29:01;99405.50;;;14.38;74.33
6208;BME280;3137;51.550;7.060;2023-03-13T09:31:29;99393.75;;;14.56;73.63
6208;BME280;3137;51.550;7.060;2023-03-13T09:33:56;99407.03;;;14.57;74.17
6208;BME280;3137;51.550;7.060;2023-03-13T09:36:23;99413.28;;;14.58;73.20
6208;BME280;3137;51.550;7.060;2023-03-13T09:38:52;99396.25;;;14.57;73.07
6208;BME280;3137;51.550;7.060;2023-03-13T09:49:15;99403.31;;;14.75;71.98
6208;BME280;3137;51.550;7.060;2023-03-13T09:51:48;99397.94;;;14.83;72.81
6208;BME280;3137;51.550;7.060;2023-03-13T09:54:23;99379.25;;;14.73;73.47
6208;BME280;3137;51.550;7.060;2023-03-13T09:56:58;99385.34;;;14.59;72.38
6208;BME280;3137;51.550;7.060;2023-03-13T10:02:20;99387.69;;;14.62;74.37
6208;BME280;3137;51.550;7.060;2023-03-13T10:04:59;99384.81;;;14.80;74.17
6208;BME280;3137;51.550;7.060;2023-03-13T10:07:27;99368.78;;;14.78;74.35
6208;BME280;3137;51.550;7.060;2023-03-13T10:09:53;99384.13;;;14.70;74.30
6208;BME280;3137;51.550;7.060;2023-03-13T10:12:24;99366.13;;;14.62;75.17
6208;BME280;3137;51.550;7.060;2023-03-13T10:17:49;99355.16;;;14.72;75.55
6208;BME280;3137;51.550;7.060;2023-03-13T10:20:27;99357.69;;;14.73;74.76
6208;BME280;3137;51.550;7.060;2023-03-13T10:23:00;99353.50;;;14.71;74.35
6208;BME280;3137;51.550;7.060;2023-03-13T10:25:36;99357.03;;;14.71;74.96
6208;BME280;3137;51.550;7.060;2023-03-13T10:28:05;99350.78;;;14.71;74.50
6208;BME280;3137;51.550;7.060;2023-03-13T10:30:34;99338.47;;;14.76;75.20
6208;BME280;3137;51.550;7.060;2023-03-13T10:33:18;99332.41;;;14.82;73.67
6208;BME280;3137;51.550;7.060;2023-03-13T10:35:45;99332.34;;;15.07;73.79
6208;BME280;3137;51.550;7.060;2023-03-13T10:38:19;99317.81;;;15.16;72.74
6208;BME280;3137;51.550;7.060;2023-03-13T10:40:56;99325.63;;;15.34;72.02
6208;BME280;3137;51.550;7.060;2023-03-13T10:43:25;99334.75;;;15.33;71.39
6208;BME280;3137;51.550;7.060;2023-03-13T10:45:52;99331.28;;;15.16;71.37
6208;BME280;3137;51.550;7.060;2023-03-13T10:48:24;99328.28;;;15.11;71.74
6208;BME280;3137;51.550;7.060;2023-03-13T10:50:54;99320.00;;;15.13;72.18
6208;BME280;3137;51.550;7.060;2023-03-13T10:55:59;99307.88;;;15.48;70.11
6208;BME280;3137;51.550;7.060;2023-03-13T10:58:54;99298.03;;;15.55;70.34
6208;BME280;3137;51.550;7.060;2023-03-13T11:01:26;99290.13;;;15.53;69.94
6208;BME280;3137;51.550;7.060;2023-03-13T11:04:27;99290.91;;;15.62;70.01
6208;BME280;3137;51.550;7.060;2023-03-13T11:07:04;99288.38;;;15.61;68.97
6208;BME280;3137;51.550;7.060;2023-03-13T11:09:31;99287.06;;;15.88;68.22
6208;BME280;3137;51.550;7.060;2023-03-13T11:12:04;99281.56;;;15.81;67.72
6208;BME280;3137;51.550;7.060;2023-03-13T11:14:32;99281.25;;;15.76;67.66
6208;BME280;3137;51.550;7.060;2023-03-13T11:17:23;99279.59;;;15.67;68.14
6208;BME280;3137;51.550;7.060;2023-03-13T11:20:26;99268.75;;;15.75;67.73
6208;BME280;3137;51.550;7.060;2023-03-13T11:23:08;99278.94;;;15.65;67.00
6208;BME280;3137;51.550;7.060;2023-03-13T11:26:09;99286.19;;;15.64;65.69
6208;BME280;3137;51.550;7.060;2023-03-13T11:28:54;99275.22;;;15.66;67.66
6208;BME280;3137;51.550;7.060;2023-03-13T11:31:32;99268.13;;;15.73;66.38
6208;BME280;3137;51.550;7.060;2023-03-13T11:34:04;99263.19;;;15.77;66.25
6208;BME280;3137;51.550;7.060;2023-03-13T11:36:38;99263.13;;;15.85;64.76
6208;BME280;3137;51.550;7.060;2023-03-13T11:45:06;99258.50;;;15.93;64.71
6208;BME280;3137;51.550;7.060;2023-03-13T11:47:53;99263.19;;;16.00;63.67
6208;BME280;3137;51.550;7.060;2023-03-13T11:50:38;99237.97;;;16.07;62.62
6208;BME280;3137;51.550;7.060;2023-03-13T11:53:23;99247.19;;;16.13;62.29
6208;BME280;3137;51.550;7.060;2023-03-13T11:58:50;99244.22;;;16.23;61.14
6208;BME280;3137;51.550;7.060;2023-03-13T12:01:22;99213.59;;;16.30;62.06
6208;BME280;3137;51.550;7.060;2023-03-13T12:04:02;99214.25;;;16.32;60.71
6208;BME280;3137;51.550;7.060;2023-03-13T12:06:33;99208.84;;;16.32;60.82
6208;BME280;3137;51.550;7.060;2023-03-13T12:09:08;99207.81;;;16.19;58.63
6208;BME280;3137;51.550;7.060;2023-03-13T12:11:39;99213.56;;;16.15;57.90
6208;BME280;3137;51.550;7.060;2023-03-13T12:14:14;99203.13;;;16.12;59.56
6208;BME280;3137;51.550;7.060;2023-03-13T12:16:46;99212.50;;;16.02;58.84
6208;BME280;3137;51.550;7.060;2023-03-13T12:19:21;99203.88;;;16.06;58.93
6208;BME280;3137;51.550;7.060;2023-03-13T12:21:52;99181.31;;;15.99;59.40
6208;BME280;3137;51.550;7.060;2023-03-13T12:24:34;99188.13;;;15.95;60.00
6208;BME280;3137;51.550;7.060;2023-03-13T12:27:12;99176.53;;;15.86;60.78
6208;BME280;3137;51.550;7.060;2023-03-13T12:32:34;99173.03;;;16.15;58.33
6208;BME280;3137;51.550;7.060;2023-03-13T12:38:32;99185.63;;;16.23;56.40
6208;BME280;3137;51.550;7.060;2023-03-13T12:40:37;99169.50;;;16.15;57.66
6208;BME280;3137;51.550;7.060;2023-03-13T12:43:13;99170.56;;;16.14;56.87
6208;BME280;3137;51.550;7.060;2023-03-13T12:51:52;99150.16;;;16.11;59.68
6208;BME280;3137;51.550;7.060;2023-03-13T12:57:00;99136.81;;;16.25;59.86
6208;BME280;3137;51.550;7.060;2023-03-13T12:59:33;99148.84;;;16.22;59.19
6208;BME280;3137;51.550;7.060;2023-03-13T13:02:01;99140.91;;;16.21;59.30
6208;BME280;3137;51.550;7.060;2023-03-13T13:04:33;99132.63;;;16.22;59.08
6208;BME280;3137;51.550;7.060;2023-03-13T13:07:20;99122.66;;;16.08;59.09
6208;BME280;3137;51.550;7.060;2023-03-13T13:12:36;99115.78;;;16.05;59.54
6208;BME280;3137;51.550;7.060;2023-03-13T13:15:24;99112.91;;;16.07;59.88
6208;BME280;3137;51.550;7.060;2023-03-13T13:17:59;99104.25;;;16.11;59.17
6208;BME280;3137;51.550;7.060;2023-03-13T13:23:21;99103.03;;;16.14;58.10
6208;BME280;3137;51.550;7.060;2023-03-13T13:25:48;99113.63;;;16.15;58.40
6208;BME280;3137;51.550;7.060;2023-03-13T13:30:48;99095.00;;;16.35;57.64
6208;BME280;3137;51.550;7.060;2023-03-13T13:35:46;99086.53;;;16.24;54.90
6208;BME280;3137;51.550;7.060;2023-03-13T13:43:29;99095.34;;;16.32;55.33
6208;BME280;3137;51.550;7.060;2023-03-13T13:48:41;99093.88;;;16.30;57.72
6208;BME280;3137;51.550;7.060;2023-03-13T13:53:58;99085.88;;;16.22;58.08
6208;BME280;3137;51.550;7.060;2023-03-13T13:56:31;99077.69;;;16.15;58.80
6208;BME280;3137;51.550;7.060;2023-03-13T13:59:04;99074.25;;;16.21;57.97
6208;BME280;3137;51.550;7.060;2023-03-13T14:01:38;99069.75;;;16.13;58.22
6208;BME280;3137;51.550;7.060;2023-03-13T14:04:16;99065.22;;;16.14;57.52
6208;BME280;3137;51.550;7.060;2023-03-13T14:06:47;99063.91;;;16.10;57.95
6208;BME280;3137;51.550;7.060;2023-03-13T14:09:58;99066.69;;;16.16;59.22
6208;BME280;3137;51.550;7.060;2023-03-13T14:12:36;99060.63;;;16.29;58.38
6208;BME280;3137;51.550;7.060;2023-03-13T14:15:11;99068.91;;;16.28;58.00
6208;BME280;3137;51.550;7.060;2023-03-13T14:17:44;99061.00;;;16.26;58.29
6208;BME280;3137;51.550;7.060;2023-03-13T14:22:57;99057.56;;;16.03;58.62
6208;BME280;3137;51.550;7.060;2023-03-13T14:25:39;99059.50;;;15.94;59.82
6208;BME280;3137;51.550;7.060;2023-03-13T14:28:15;99043.13;;;15.95;59.67
6208;BME280;3137;51.550;7.060;2023-03-13T14:30:42;99029.63;;;15.95;59.35
6208;BME280;3137;51.550;7.060;2023-03-13T14:33:09;99039.03;;;15.85;60.83
6208;BME280;3137;51.550;7.060;2023-03-13T14:35:36;99033.28;;;15.88;60.28
6208;BME280;3137;51.550;7.060;2023-03-13T14:38:04;99031.03;;;15.91;60.53
6208;BME280;3137;51.550;7.060;2023-03-13T14:40:32;99020.31;;;15.98;60.18
6208;BME280;3137;51.550;7.060;2023-03-13T14:43:03;99011.28;;;16.06;60.32
6208;BME280;3137;51.550;7.060;2023-03-13T14:45:33;99021.69;;;16.09;60.34
6208;BME280;3137;51.550;7.060;2023-03-13T14:51:08;99012.22;;;15.98;60.85
6208;BME280;3137;51.550;7.060;2023-03-13T14:53:54;99004.28;;;15.97;61.39
6208;BME280;3137;51.550;7.060;2023-03-13T14:56:31;99013.06;;;15.99;62.07
6208;BME280;3137;51.550;7.060;2023-03-13T14:59:18;99016.22;;;16.17;62.52
6208;BME280;3137;51.550;7.060;2023-03-13T15:01:58;99005.31;;;16.10;61.59
6208;BME280;3137;51.550;7.060;2023-03-13T15:07:16;99005.59;;;16.15;60.37
6208;BME280;3137;51.550;7.060;2023-03-13T15:09:43;98989.03;;;16.04;60.18